Weifang, China
Current Conditions -  °F | °C
As of 8:00 AM on Monday 24 Nov 2014 (Local Time) from ZSQD Reporting Station
Clear Clear  
Wind Chill: 50°   Ceiling: Unl
Heat Index: 50°   Visibility: 6mi
Dew Point: 36°   Wind: 9mph
Humidity: 58%   Direction: 20°NNE
Pressure: 30.21"   Gusts: NA
Location:  36.72°N, 119.1°E
Report Text: ZSQD 240000Z 02004MPS CAVOK 10/02 Q1023 NOSIG
Loading
Personal Weather Stations






























Interactive Weather Map New forecast layout! Learn more

10-Day Weather Forecast

Advertisements
Track Severe Weather on mobile